Terminal Aerodrome Forecast
Issued by NWS

Home | Current Version | Previous Version | Text Only | Print | Product List | Glossary On
Versions: 1 2 3 4 5 6 7 8 9 10 11 12 13 14 15 16
000
FTUS45 KGJT 011744 AAA
TAFDRO
TAF AMD
KDRO 011744Z 0118/0218 11009KT P6SM -SHRA OVC040
      TEMPO 0118/0120 1/2SM SNRA FG OVC010
     FM012000 10009KT P6SM -SHRA OVC025
     FM012200 09009KT P6SM -SHRA OVC045
     FM020000 08008KT P6SM VCSH OVC045
     FM020900 05005KT P6SM OVC070=

USA.gov is the U.S. government's official web portal to all federal, state and local government web resources and services.